createdAt,value
2022-12-28T00:02:16.306Z,101556.41
2022-12-28T00:04:43.084Z,101556.63
2022-12-28T00:07:09.843Z,101552.44
2022-12-28T00:09:36.414Z,101553.81
2022-12-28T00:12:03.218Z,101549.28
2022-12-28T00:14:29.883Z,101532.56
2022-12-28T00:16:59.234Z,101542.00
2022-12-28T00:19:25.777Z,101538.19
2022-12-28T00:21:53.594Z,101531.69
2022-12-28T00:24:22.226Z,101523.97
2022-12-28T00:26:49.283Z,101523.97
2022-12-28T00:29:16.492Z,101511.28
2022-12-28T00:31:43.254Z,101507.59
2022-12-28T00:34:10.310Z,101514.59
2022-12-28T00:37:09.011Z,101504.31
2022-12-28T00:39:23.474Z,101505.91
2022-12-28T00:41:49.961Z,101500.38
2022-12-28T00:44:16.644Z,101492.06
2022-12-28T00:46:43.331Z,101494.94
2022-12-28T00:49:11.441Z,101486.75
2022-12-28T00:51:38.005Z,101477.72
2022-12-28T00:54:04.787Z,101471.34
2022-12-28T00:56:31.860Z,101466.41
2022-12-28T00:58:58.781Z,101464.75
2022-12-28T01:01:26.171Z,101465.78
2022-12-28T01:03:54.943Z,101459.69
2022-12-28T01:06:21.559Z,101453.94
2022-12-28T01:08:48.556Z,101446.13
2022-12-28T01:11:25.483Z,101435.31
2022-12-28T01:13:54.239Z,101427.72
2022-12-28T01:16:22.442Z,101433.47
2022-12-28T01:18:51.939Z,101428.44
2022-12-28T01:21:21.082Z,101420.72
2022-12-28T01:23:48.345Z,101414.38
2022-12-28T01:26:15.400Z,101400.88
2022-12-28T01:28:42.365Z,101404.59
2022-12-28T01:31:10.348Z,101407.88
2022-12-28T01:33:38.152Z,101404.59
2022-12-28T01:36:08.541Z,101400.50
2022-12-28T01:38:37.347Z,101399.69
2022-12-28T01:41:07.140Z,101394.38
2022-12-28T01:43:45.577Z,101393.56
2022-12-28T01:46:20.589Z,101380.25
2022-12-28T01:48:57.304Z,101375.31
2022-12-28T01:51:25.053Z,101370.00
2022-12-28T01:53:53.954Z,101370.00
2022-12-28T01:56:22.016Z,101365.91
2022-12-28T01:58:49.306Z,101364.06
2022-12-28T02:01:17.657Z,101359.97
2022-12-28T02:03:44.325Z,101343.81
2022-12-28T02:06:12.658Z,101342.78
2022-12-28T02:09:04.003Z,101343.41
2022-12-28T02:11:31.283Z,101342.34
2022-12-28T02:13:58.780Z,101341.75
2022-12-28T02:16:25.614Z,101348.72
2022-12-28T02:18:52.576Z,101367.75
2022-12-28T02:21:23.869Z,101363.25
2022-12-28T02:23:50.342Z,101359.97
2022-12-28T02:26:23.075Z,101343.59
2022-12-28T02:29:07.973Z,101343.41
2022-12-28T02:31:46.626Z,101335.41
2022-12-28T02:34:13.203Z,101335.44
2022-12-28T02:36:43.373Z,101328.03
2022-12-28T02:39:13.936Z,101338.28
2022-12-28T02:41:42.078Z,101336.44
2022-12-28T02:44:09.305Z,101343.19
2022-12-28T02:46:54.561Z,101339.91
2022-12-28T02:49:41.521Z,101339.31
2022-12-28T02:52:12.073Z,101326.00
2022-12-28T02:55:35.938Z,101327.19
2022-12-28T02:58:14.757Z,101307.75
2022-12-28T03:00:50.507Z,101308.75
2022-12-28T03:03:20.179Z,101303.84
2022-12-28T03:06:08.776Z,101298.94
2022-12-28T03:08:38.295Z,101298.53
2022-12-28T03:11:08.369Z,101295.25
2022-12-28T03:13:46.864Z,101302.66
2022-12-28T03:16:20.715Z,101301.00
2022-12-28T03:19:08.945Z,101300.97
2022-12-28T03:21:55.195Z,101301.81
2022-12-28T03:24:41.417Z,101305.09
2022-12-28T03:27:30.352Z,101290.34
2022-12-28T03:30:23.851Z,101289.34
2022-12-28T03:32:50.754Z,101282.56
2022-12-28T03:35:19.609Z,101279.28
2022-12-28T03:37:58.188Z,101269.88
2022-12-28T03:40:31.089Z,101268.69
2022-12-28T03:43:19.300Z,101262.09
2022-12-28T03:45:47.446Z,101265.38
2022-12-28T03:48:17.330Z,101259.22
2022-12-28T03:50:47.049Z,101254.31
2022-12-28T03:53:20.402Z,101241.41
2022-12-28T03:55:49.118Z,101231.81
2022-12-28T03:58:18.723Z,101225.69
2022-12-28T04:00:45.496Z,101222.41
2022-12-28T04:03:14.906Z,101217.66
2022-12-28T04:05:44.835Z,101213.75
2022-12-28T04:08:11.570Z,101216.03
2022-12-28T04:10:38.126Z,101216.03
2022-12-28T04:13:04.767Z,101213.97
2022-12-28T04:16:00.912Z,101208.41
2022-12-28T04:18:30.220Z,101210.44
2022-12-28T04:20:57.620Z,101212.06
2022-12-28T04:23:24.681Z,101208.78
2022-12-28T04:26:02.042Z,101204.28
2022-12-28T04:28:29.141Z,101205.84
2022-12-28T04:31:14.445Z,101201.38
2022-12-28T04:33:48.300Z,101207.50
2022-12-28T04:36:15.949Z,101193.56
2022-12-28T04:38:44.113Z,101195.56
2022-12-28T04:41:11.019Z,101190.72
2022-12-28T04:43:37.827Z,101195.59
2022-12-28T04:46:05.863Z,101197.22
2022-12-28T04:48:32.852Z,101196.91
2022-12-28T04:51:05.687Z,101187.50
2022-12-28T04:53:32.304Z,101194.47
2022-12-28T04:56:02.905Z,101187.50
2022-12-28T04:58:29.660Z,101185.88
2022-12-28T05:01:02.276Z,101186.25
2022-12-28T05:03:28.927Z,101194.84
2022-12-28T05:05:59.374Z,101199.13
2022-12-28T05:08:26.240Z,101196.28
2022-12-28T05:10:52.811Z,101195.88
2022-12-28T05:13:19.349Z,101192.78
2022-12-28T05:15:45.956Z,101195.69
2022-12-28T05:18:12.520Z,101185.63
2022-12-28T05:20:39.009Z,101185.03
2022-12-28T05:23:05.557Z,101180.91
2022-12-28T05:25:32.166Z,101169.41
2022-12-28T05:27:58.787Z,101164.50
2022-12-28T05:30:25.393Z,101158.00
2022-12-28T05:32:51.855Z,101165.59
2022-12-28T05:35:18.357Z,101162.97
2022-12-28T05:37:44.884Z,101154.03
2022-12-28T05:40:11.926Z,101156.06
2022-12-28T05:42:38.512Z,101157.28
2022-12-28T05:45:05.376Z,101163.22
2022-12-28T05:47:32.183Z,101160.19
2022-12-28T05:49:58.735Z,101157.94
2022-12-28T05:52:25.294Z,101147.91
2022-12-28T05:54:55.955Z,101144.16
2022-12-28T05:57:22.518Z,101143.16
2022-12-28T05:59:49.266Z,101142.09
2022-12-28T06:02:20.280Z,101137.13
2022-12-28T06:04:49.871Z,101145.31
2022-12-28T06:07:16.354Z,101140.41
2022-12-28T06:09:43.028Z,101143.88
2022-12-28T06:12:09.580Z,101136.13
2022-12-28T06:14:36.161Z,101135.88
2022-12-28T06:17:02.727Z,101138.44
2022-12-28T06:19:29.236Z,101142.94
2022-12-28T06:21:55.903Z,101141.53
2022-12-28T06:24:22.378Z,101139.25
2022-12-28T06:26:51.126Z,101131.81
2022-12-28T06:29:17.970Z,101132.25
2022-12-28T06:31:47.091Z,101125.94
2022-12-28T06:34:13.774Z,101128.19
2022-12-28T06:36:42.167Z,101110.78
2022-12-28T06:39:12.707Z,101111.59
2022-12-28T06:41:40.052Z,101107.72
2022-12-28T06:44:08.083Z,101113.25
2022-12-28T06:46:35.427Z,101108.69
2022-12-28T06:49:02.356Z,101111.13
2022-12-28T06:51:30.010Z,101113.78
2022-12-28T06:53:56.823Z,101101.50
2022-12-28T06:56:28.314Z,101097.56
2022-12-28T06:59:00.533Z,101092.44
2022-12-28T07:01:33.520Z,101098.00
2022-12-28T07:04:00.902Z,101091.22
2022-12-28T07:06:28.256Z,101096.56
2022-12-28T07:09:01.883Z,101093.72
2022-12-28T07:11:29.292Z,101104.59
2022-12-28T07:13:56.408Z,101107.66
2022-12-28T07:16:23.870Z,101110.56
2022-12-28T07:18:50.566Z,101109.34
2022-12-28T07:21:18.364Z,101110.16
2022-12-28T07:23:45.035Z,101107.59
2022-12-28T07:26:12.873Z,101099.81
2022-12-28T07:28:40.438Z,101090.38
2022-12-28T07:31:08.274Z,101090.38
2022-12-28T07:33:35.947Z,101087.09
2022-12-28T07:36:03.312Z,101088.13
2022-12-28T07:38:30.041Z,101084.44
2022-12-28T07:41:04.460Z,101089.38
2022-12-28T07:43:31.073Z,101084.66
2022-12-28T07:46:01.630Z,101088.31
2022-12-28T07:48:29.213Z,101089.47
2022-12-28T07:50:55.817Z,101084.28
2022-12-28T07:53:22.455Z,101084.50
2022-12-28T07:55:58.996Z,101078.03
2022-12-28T07:58:25.725Z,101079.22
2022-12-28T08:00:52.322Z,101075.50
2022-12-28T08:03:19.629Z,101078.09
2022-12-28T08:05:46.217Z,101064.56
2022-12-28T08:08:12.862Z,101067.66
2022-12-28T08:10:39.487Z,101048.75
2022-12-28T08:13:06.172Z,101042.53
2022-12-28T08:15:32.794Z,101047.88
2022-12-28T08:17:59.539Z,101042.94
2022-12-28T08:20:26.241Z,101051.09
2022-12-28T08:22:53.416Z,101041.84
2022-12-28T08:25:19.980Z,101041.78
2022-12-28T08:27:46.912Z,101038.50
2022-12-28T08:30:16.702Z,101039.03
2022-12-28T08:32:46.159Z,101043.94
2022-12-28T08:35:12.814Z,101037.66
2022-12-28T08:37:42.756Z,101044.16
2022-12-28T08:40:12.403Z,101045.19
2022-12-28T08:42:39.329Z,101032.25
2022-12-28T08:45:06.170Z,101034.69
2022-12-28T08:47:32.883Z,101033.63
2022-12-28T08:50:00.880Z,101027.25
2022-12-28T08:52:27.671Z,101027.13
2022-12-28T08:54:54.223Z,101034.38
2022-12-28T08:57:21.180Z,101031.72
2022-12-28T08:59:47.986Z,101031.84
2022-12-28T09:02:14.920Z,101030.44
2022-12-28T09:04:42.013Z,101032.28
2022-12-28T09:07:08.674Z,101029.22
2022-12-28T09:09:35.338Z,101038.34
2022-12-28T09:12:01.997Z,101042.97
2022-12-28T09:14:28.564Z,101036.31
2022-12-28T09:16:55.388Z,101039.06
2022-12-28T09:19:22.738Z,101032.75
2022-12-28T09:21:52.389Z,101030.72
2022-12-28T09:24:19.204Z,101026.81
2022-12-28T09:26:45.898Z,101028.88
2022-12-28T09:29:13.854Z,101035.03
2022-12-28T09:31:41.473Z,101036.75
2022-12-28T09:36:57.971Z,101028.72
2022-12-28T09:39:25.181Z,101027.63
2022-12-28T09:42:10.581Z,101029.59
2022-12-28T09:44:37.105Z,101017.44
2022-12-28T09:47:23.234Z,101021.41
2022-12-28T09:49:58.120Z,101015.44
2022-12-28T09:52:35.490Z,101026.94
2022-12-28T09:55:13.693Z,101017.31
2022-12-28T09:57:44.978Z,101022.28
2022-12-28T10:00:19.594Z,101026.28
2022-12-28T10:02:50.942Z,101023.25
2022-12-28T10:05:17.665Z,101021.53
2022-12-28T10:07:44.279Z,101020.25
2022-12-28T10:10:16.198Z,101026.88
2022-12-28T10:12:43.791Z,101024.31
2022-12-28T10:15:12.334Z,101012.63
2022-12-28T10:17:39.121Z,101007.78
2022-12-28T10:20:08.014Z,101011.72
2022-12-28T10:22:43.525Z,100997.25
2022-12-28T10:25:14.348Z,100994.75
2022-12-28T10:27:40.935Z,100999.38
2022-12-28T10:30:14.477Z,100989.81
2022-12-28T10:33:02.961Z,100983.72
2022-12-28T10:35:36.081Z,100983.81
2022-12-28T10:38:04.363Z,100976.41
2022-12-28T10:40:32.985Z,100976.75
2022-12-28T10:43:02.105Z,100963.38
2022-12-28T10:45:32.162Z,100960.88
2022-12-28T10:47:58.781Z,100958.94
2022-12-28T10:50:40.150Z,100954.16
2022-12-28T10:53:26.489Z,100951.22
2022-12-28T10:56:12.017Z,100951.69
2022-12-28T10:58:43.714Z,100945.38
2022-12-28T11:01:13.414Z,100940.81
2022-12-28T11:03:44.675Z,100926.50
2022-12-28T11:06:18.655Z,100929.09
2022-12-28T11:08:59.406Z,100916.31
2022-12-28T11:11:26.311Z,100920.91
2022-12-28T11:14:00.364Z,100916.63
2022-12-28T11:16:30.165Z,100912.53
2022-12-28T11:18:57.754Z,100907.84
2022-12-28T11:21:25.631Z,100904.34
2022-12-28T11:23:53.203Z,100911.25
2022-12-28T11:26:20.516Z,100907.19
2022-12-28T11:28:49.439Z,100892.88
2022-12-28T11:31:38.753Z,100885.59
2022-12-28T11:34:07.581Z,100882.72
2022-12-28T11:36:38.878Z,100876.84
2022-12-28T11:39:24.520Z,100884.50
2022-12-28T11:44:50.299Z,100878.97
2022-12-28T11:47:16.807Z,100876.28
2022-12-28T11:49:47.448Z,100863.44
2022-12-28T11:52:17.178Z,100870.25
2022-12-28T11:54:58.043Z,100863.22
2022-12-28T11:57:38.382Z,100868.94
2022-12-28T12:00:31.246Z,100853.91
2022-12-28T12:03:02.157Z,100862.34
2022-12-28T12:05:38.227Z,100847.19
2022-12-28T12:08:17.114Z,100847.75
2022-12-28T12:10:44.672Z,100837.25
2022-12-28T12:13:26.362Z,100830.69
2022-12-28T12:15:52.851Z,100833.09
2022-12-28T12:18:22.104Z,100822.00
2022-12-28T12:20:53.777Z,100817.88
2022-12-28T12:23:36.420Z,100818.91
2022-12-28T12:26:21.851Z,100810.75
2022-12-28T12:28:50.103Z,100813.47
2022-12-28T12:31:23.037Z,100806.63
2022-12-28T12:33:51.330Z,100800.28
2022-12-28T12:36:26.973Z,100788.38
2022-12-28T12:38:59.471Z,100790.94
2022-12-28T12:41:38.895Z,100787.16
2022-12-28T12:44:22.903Z,100782.22
2022-12-28T12:47:05.889Z,100780.53
2022-12-28T12:49:32.796Z,100775.19
2022-12-28T12:52:14.573Z,100771.75
2022-12-28T12:54:41.083Z,100777.94
2022-12-28T12:57:16.916Z,100759.97
2022-12-28T12:59:59.274Z,100761.72
2022-12-28T13:02:26.019Z,100765.41
2022-12-28T13:04:52.768Z,100760.03
2022-12-28T13:07:24.039Z,100762.22
2022-12-28T13:09:51.847Z,100764.88
2022-12-28T13:12:19.535Z,100762.13
2022-12-28T13:14:54.455Z,100755.66
2022-12-28T13:17:21.669Z,100756.03
2022-12-28T13:19:48.390Z,100758.13
2022-12-28T13:22:31.839Z,100752.28
2022-12-28T13:25:01.098Z,100751.78
2022-12-28T13:27:32.304Z,100742.53
2022-12-28T13:30:00.444Z,100750.25
2022-12-28T13:32:37.545Z,100741.41
2022-12-28T13:35:16.504Z,100737.03
2022-12-28T13:37:43.079Z,100726.34
2022-12-28T13:40:10.807Z,100731.69
2022-12-28T13:42:53.252Z,100727.47
2022-12-28T13:45:20.803Z,100714.63
2022-12-28T13:47:49.271Z,100714.06
2022-12-28T13:50:21.007Z,100711.09
2022-12-28T13:52:51.780Z,100717.16
2022-12-28T13:55:20.562Z,100716.75
2022-12-28T13:57:54.145Z,100711.38
2022-12-28T14:00:22.956Z,100715.13
2022-12-28T14:02:50.587Z,100718.84
2022-12-28T14:05:18.649Z,100711.56
2022-12-28T14:07:46.017Z,100696.25
2022-12-28T14:10:13.272Z,100698.94
2022-12-28T14:12:40.356Z,100683.34
2022-12-28T14:15:08.399Z,100686.09
2022-12-28T14:17:37.622Z,100681.72
2022-12-28T14:20:04.965Z,100683.28
2022-12-28T14:22:36.122Z,100677.38
2022-12-28T14:25:10.928Z,100673.13
2022-12-28T14:27:42.751Z,100671.03
2022-12-28T14:30:26.753Z,100667.78
2022-12-28T14:32:54.210Z,100663.09
2022-12-28T14:35:22.998Z,100669.09
2022-12-28T14:37:51.324Z,100660.63
2022-12-28T14:40:23.441Z,100665.72
2022-12-28T14:42:50.473Z,100665.16
2022-12-28T14:46:05.456Z,100659.31
2022-12-28T14:48:30.048Z,100653.16
2022-12-28T14:50:57.340Z,100657.19
2022-12-28T14:53:25.007Z,100650.72
2022-12-28T14:56:11.273Z,100651.28
2022-12-28T14:58:50.963Z,100651.75
2022-12-28T15:01:18.023Z,100644.72
2022-12-28T15:03:52.427Z,100649.22
2022-12-28T15:06:20.392Z,100647.22
2022-12-28T15:08:47.811Z,100645.59
2022-12-28T15:11:14.465Z,100646.28
2022-12-28T15:13:41.454Z,100655.06
2022-12-28T15:16:10.945Z,100646.47
2022-12-28T15:18:38.678Z,100639.16
2022-12-28T15:21:05.599Z,100633.50
2022-12-28T15:23:33.322Z,100624.91
2022-12-28T15:26:05.746Z,100625.53
2022-12-28T15:28:32.487Z,100618.88
2022-12-28T15:30:59.077Z,100614.34
2022-12-28T15:33:25.815Z,100614.25
2022-12-28T15:35:52.552Z,100624.16
2022-12-28T15:38:19.141Z,100611.84
2022-12-28T15:40:47.076Z,100615.69
2022-12-28T15:43:13.688Z,100625.72
2022-12-28T15:45:40.297Z,100613.44
2022-12-28T15:48:07.208Z,100623.16
2022-12-28T15:50:33.776Z,100617.50
2022-12-28T15:53:00.328Z,100611.16
2022-12-28T15:55:26.822Z,100600.63
2022-12-28T15:57:54.812Z,100602.03
2022-12-28T16:00:21.461Z,100596.44
2022-12-28T16:02:48.292Z,100593.53
2022-12-28T16:05:15.006Z,100585.81
2022-12-28T16:07:41.616Z,100571.84
2022-12-28T16:10:08.439Z,100575.78
2022-12-28T16:12:35.117Z,100581.38
2022-12-28T16:15:01.684Z,100586.16
2022-12-28T16:17:28.308Z,100579.44
2022-12-28T16:19:54.796Z,100580.81
2022-12-28T16:22:21.279Z,100568.81
2022-12-28T16:24:48.750Z,100572.56
2022-12-28T16:27:15.423Z,100567.13
2022-12-28T16:29:41.967Z,100571.19
2022-12-28T16:32:08.677Z,100571.41
2022-12-28T16:34:35.216Z,100573.88
2022-12-28T16:37:01.775Z,100573.03
2022-12-28T16:39:29.111Z,100566.31
2022-12-28T16:41:56.374Z,100570.63
2022-12-28T16:44:24.112Z,100571.41
2022-12-28T16:46:51.190Z,100572.41
2022-12-28T16:49:18.123Z,100576.13
2022-12-28T16:51:45.681Z,100582.78
2022-12-28T16:54:14.289Z,100574.69
2022-12-28T16:56:41.028Z,100569.91
2022-12-28T16:59:07.525Z,100569.41
2022-12-28T17:01:34.055Z,100577.25
2022-12-28T17:04:04.181Z,100579.34
2022-12-28T17:06:31.272Z,100579.63
2022-12-28T17:09:00.078Z,100574.53
2022-12-28T17:11:26.743Z,100574.34
2022-12-28T17:13:53.268Z,100566.06
2022-12-28T17:16:19.915Z,100553.16
2022-12-28T17:18:46.407Z,100559.34
2022-12-28T17:21:12.896Z,100555.59
2022-12-28T17:23:40.248Z,100555.03
2022-12-28T17:26:07.168Z,100549.22
2022-12-28T17:28:33.731Z,100538.94
2022-12-28T17:31:11.419Z,100534.50
2022-12-28T17:33:40.062Z,100528.16
2022-12-28T17:36:07.432Z,100531.91
2022-12-28T17:38:33.920Z,100529.28
2022-12-28T17:41:00.406Z,100520.44
2022-12-28T17:43:26.986Z,100514.53
2022-12-28T17:45:53.584Z,100519.09
2022-12-28T17:48:20.271Z,100510.50
2022-12-28T17:50:47.145Z,100517.97
2022-12-28T17:53:13.935Z,100510.94
2022-12-28T17:55:40.461Z,100505.63
2022-12-28T17:58:06.955Z,100497.13
2022-12-28T18:00:33.565Z,100492.81
2022-12-28T18:03:01.397Z,100486.00
2022-12-28T18:05:30.226Z,100488.47
2022-12-28T18:07:56.824Z,100473.78
2022-12-28T18:10:23.308Z,100472.19
2022-12-28T18:12:50.606Z,100464.16
2022-12-28T18:15:17.284Z,100464.72
2022-12-28T18:17:43.830Z,100463.66
2022-12-28T18:20:10.294Z,100451.06
2022-12-28T18:22:36.803Z,100438.44
2022-12-28T18:25:03.412Z,100445.88
2022-12-28T18:27:30.156Z,100436.16
2022-12-28T18:29:56.797Z,100420.03
2022-12-28T18:32:23.368Z,100417.31
2022-12-28T18:34:50.090Z,100425.09
2022-12-28T18:37:16.574Z,100426.47
2022-12-28T18:39:43.087Z,100427.81
2022-12-28T18:42:09.563Z,100415.81
2022-12-28T18:44:36.058Z,100414.00
2022-12-28T18:47:02.490Z,100409.47
2022-12-28T18:49:30.267Z,100411.28
2022-12-28T18:51:57.049Z,100416.31
2022-12-28T18:54:23.960Z,100419.88
2022-12-28T18:56:50.521Z,100418.06
2022-12-28T18:59:17.064Z,100413.34
2022-12-28T19:04:30.746Z,100418.97
2022-12-28T19:06:57.380Z,100407.47
2022-12-28T19:09:23.922Z,100404.47
2022-12-28T19:11:50.435Z,100401.56
2022-12-28T19:14:17.143Z,100398.88
2022-12-28T19:16:45.108Z,100396.72
2022-12-28T19:19:12.126Z,100392.97
2022-12-28T19:21:42.195Z,100391.31
2022-12-28T19:24:18.690Z,100397.16
2022-12-28T19:26:46.102Z,100395.72
2022-12-28T19:29:13.067Z,100392.81
2022-12-28T19:31:39.730Z,100385.34
2022-12-28T19:34:06.315Z,100385.34
2022-12-28T19:36:32.922Z,100374.34
2022-12-28T19:38:59.558Z,100366.75
2022-12-28T19:41:26.171Z,100375.22
2022-12-28T19:43:53.049Z,100371.78
2022-12-28T19:46:20.775Z,100374.47
2022-12-28T19:48:47.375Z,100364.84
2022-12-28T19:51:14.726Z,100359.72
2022-12-28T19:53:41.326Z,100357.75
2022-12-28T19:56:08.782Z,100360.13
2022-12-28T19:58:36.073Z,100344.63
2022-12-28T20:01:07.070Z,100353.78
2022-12-28T20:03:34.126Z,100349.78
2022-12-28T20:06:08.568Z,100346.50
2022-12-28T20:08:35.433Z,100343.88
2022-12-28T20:11:03.398Z,100331.16
2022-12-28T20:13:30.596Z,100335.41
2022-12-28T20:15:57.392Z,100338.97
2022-12-28T20:18:24.139Z,100337.56
2022-12-28T20:21:18.657Z,100318.81
2022-12-28T20:23:37.458Z,100318.81
2022-12-28T20:26:04.043Z,100315.09
2022-12-28T20:28:30.679Z,100331.75
2022-12-28T20:31:01.527Z,100317.41
2022-12-28T20:33:28.773Z,100306.22
2022-12-28T20:36:05.736Z,100315.50
2022-12-28T20:38:32.879Z,100305.59
2022-12-28T20:41:06.813Z,100305.41
2022-12-28T20:43:34.265Z,100306.78
2022-12-28T20:46:01.852Z,100294.50
2022-12-28T20:48:30.699Z,100298.75
2022-12-28T20:51:00.836Z,100293.41
2022-12-28T20:53:28.023Z,100289.66
2022-12-28T20:55:57.687Z,100288.31
2022-12-28T20:58:24.346Z,100282.69
2022-12-28T21:00:51.433Z,100271.69
2022-12-28T21:03:18.155Z,100270.88
2022-12-28T21:05:44.776Z,100275.69
2022-12-28T21:08:11.331Z,100267.78
2022-12-28T21:10:37.846Z,100272.50
2022-12-28T21:13:04.451Z,100266.97
2022-12-28T21:15:31.210Z,100262.06
2022-12-28T21:17:59.343Z,100263.50
2022-12-28T21:20:26.571Z,100260.16
2022-12-28T21:22:53.143Z,100253.78
2022-12-28T21:25:19.797Z,100254.06
2022-12-28T21:27:46.321Z,100252.00
2022-12-28T21:30:12.989Z,100256.50
2022-12-28T21:32:39.631Z,100257.28
2022-12-28T21:35:06.332Z,100260.03
2022-12-28T21:37:35.861Z,100246.88
2022-12-28T21:40:05.559Z,100254.94
2022-12-28T21:42:32.182Z,100253.63
2022-12-28T21:44:58.779Z,100239.69
2022-12-28T21:47:25.418Z,100246.97
2022-12-28T21:49:51.996Z,100241.91
2022-12-28T21:52:18.687Z,100243.50
2022-12-28T21:54:45.286Z,100240.88
2022-12-28T21:57:12.098Z,100232.06
2022-12-28T21:59:39.131Z,100229.09
2022-12-28T22:02:31.100Z,100230.19
2022-12-28T22:05:16.980Z,100229.69
2022-12-28T22:07:43.607Z,100228.59
2022-12-28T22:10:28.732Z,100233.47
2022-12-28T22:12:55.921Z,100233.22
2022-12-28T22:15:42.110Z,100223.88
2022-12-28T22:18:36.574Z,100230.84
2022-12-28T22:21:03.048Z,100232.44
2022-12-28T22:23:34.377Z,100225.50
2022-12-28T22:26:01.443Z,100237.06
2022-12-28T22:28:27.893Z,100220.19
2022-12-28T22:30:54.392Z,100225.53
2022-12-28T22:33:20.984Z,100220.44
2022-12-28T22:35:47.480Z,100225.25
2022-12-28T22:38:14.039Z,100219.88
2022-12-28T22:40:40.527Z,100218.81
2022-12-28T22:43:07.033Z,100214.78
2022-12-28T22:45:33.486Z,100206.69
2022-12-28T22:48:00.169Z,100211.50
2022-12-28T22:50:27.397Z,100226.78
2022-12-28T22:52:55.502Z,100214.47
2022-12-28T22:55:22.018Z,100211.81
2022-12-28T22:57:48.486Z,100209.44
2022-12-28T23:00:15.071Z,100222.31
2022-12-28T23:02:43.575Z,100206.84
2022-12-28T23:05:10.327Z,100203.06
2022-12-28T23:07:38.577Z,100208.44
2022-12-28T23:10:06.166Z,100196.13
2022-12-28T23:12:32.698Z,100192.91
2022-12-28T23:15:19.656Z,100205.50
2022-12-28T23:17:47.653Z,100197.47
2022-12-28T23:20:32.965Z,100192.41
2022-12-28T23:23:18.331Z,100195.59
2022-12-28T23:26:03.511Z,100189.75
2022-12-28T23:28:30.021Z,100187.84
2022-12-28T23:30:56.866Z,100184.06
2022-12-28T23:33:23.875Z,100180.03
2022-12-28T23:35:50.642Z,100176.81
2022-12-28T23:38:17.393Z,100180.56
2022-12-28T23:40:43.872Z,100170.44
2022-12-28T23:43:11.063Z,100174.16
2022-12-28T23:45:37.599Z,100164.03
2022-12-28T23:48:04.675Z,100170.22
2022-12-28T23:50:31.196Z,100166.72
2022-12-28T23:52:57.720Z,100165.66
2022-12-28T23:55:24.191Z,100159.25
2022-12-28T23:57:50.728Z,100145.03
